Time;durP1;ratioP1;P1;durP2;ratioP2;P2;SDS_P1;SDS_P2;PMS_P1;PMS_P2;Temp;Humidity;BMP_temperature;BMP_pressure;BME280_temperature;BME280_humidity;BME280_pressure;Samples;Min_cycle;Max_cycle;Signal;HPM_P1;HPM_P2
2022/06/13 07:58:53;;;;;;;5.93;3.00;;;;;;;17.23;57.93;102060.97;5236229;27;1904647;-73
2022/06/13 08:01:25;;;;;;;6.85;3.38;;;;;;;17.41;58.09;102062.06;5283289;28;20033;-74
2022/06/13 08:03:57;;;;;;;10.00;4.05;;;;;;;17.20;58.04;102072.75;5295062;28;20024;-73
2022/06/13 08:06:28;;;;;;;7.72;3.40;;;;;;;17.33;57.78;102065.53;5282324;28;20017;-74
2022/06/13 08:09:00;;;;;;;8.02;3.40;;;;;;;17.42;58.08;102079.72;5279785;28;20132;-73
2022/06/13 08:11:35;;;;;;;6.22;3.75;;;;;;;17.57;57.85;102083.09;5295773;28;20425;-74
2022/06/13 08:14:06;;;;;;;10.68;4.13;;;;;;;17.76;57.69;102085.00;5284108;28;20029;-75
2022/06/13 08:16:38;;;;;;;6.57;2.78;;;;;;;17.74;57.19;102087.28;5287819;28;20035;-75
2022/06/13 08:19:10;;;;;;;7.07;3.10;;;;;;;17.64;56.53;102088.31;5292056;28;20040;-73
2022/06/13 08:21:41;;;;;;;10.82;3.80;;;;;;;17.76;55.71;102085.81;5293701;28;20028;-74
2022/06/13 08:24:12;;;;;;;6.60;3.20;;;;;;;17.56;54.57;102083.38;5287802;28;20040;-74
2022/06/13 08:26:44;;;;;;;8.55;3.63;;;;;;;17.71;56.16;102085.91;5274397;28;20129;-76
2022/06/13 08:29:15;;;;;;;13.90;3.92;;;;;;;17.72;57.05;102084.78;5287808;28;20031;-76
2022/06/13 08:31:46;;;;;;;7.18;2.80;;;;;;;17.66;54.81;102093.59;5299636;28;20506;-75
2022/06/13 08:34:19;;;;;;;7.07;3.05;;;;;;;17.66;55.96;102090.78;5290798;28;20031;-73
2022/06/13 08:36:51;;;;;;;8.73;2.83;;;;;;;17.66;55.92;102096.41;5291831;28;20043;-75
2022/06/13 08:39:24;;;;;;;6.63;2.65;;;;;;;17.43;55.69;102099.03;5283315;28;20086;-75
2022/06/13 08:42:00;;;;;;;6.13;2.55;;;;;;;17.55;56.08;102099.38;5275097;28;20494;-75
2022/06/13 08:44:47;;;;;;;4.85;2.38;;;;;;;17.73;56.13;102100.47;5280300;28;20471;-75
2022/06/13 08:47:36;;;;;;;7.07;2.75;;;;;;;17.86;55.97;102112.06;5296120;28;20416;-75
2022/06/13 08:50:16;;;;;;;14.10;10.90;;;;;;;17.74;56.35;102096.53;5285837;28;20386;-75
2022/06/13 08:53:00;;;;;;;10.70;6.55;;;;;;;17.91;54.99;102112.81;5286795;28;20029;-75
2022/06/13 08:55:40;;;;;;;7.05;2.40;;;;;;;18.20;53.58;102106.94;5295705;28;20462;-75
2022/06/13 08:58:33;;;;;;;11.73;8.20;;;;;;;18.39;52.68;102114.44;5281019;28;20052;-74
2022/06/13 09:01:10;;;;;;;7.13;3.38;;;;;;;18.29;52.75;102103.41;5264517;28;20099;-75
2022/06/13 09:03:53;;;;;;;7.63;3.28;;;;;;;18.20;52.61;102106.09;5294227;28;20035;-74
2022/06/13 09:06:52;;;;;;;5.43;2.40;;;;;;;18.11;51.66;102108.78;5283666;28;20032;-74
2022/06/13 09:09:26;;;;;;;4.68;2.42;;;;;;;17.96;51.03;102114.69;5273607;28;20021;-75
2022/06/13 09:12:06;;;;;;;8.38;2.25;;;;;;;17.95;52.05;102121.47;5278530;28;20025;-75
2022/06/13 09:14:50;;;;;;;5.75;2.17;;;;;;;17.86;52.45;102128.91;5261417;28;20395;-75
2022/06/13 09:17:50;;;;;;;4.80;2.25;;;;;;;17.72;50.76;102129.69;5263082;28;20116;-74
2022/06/13 09:20:42;;;;;;;5.93;2.42;;;;;;;17.43;50.95;102131.84;5275664;28;20043;-74
2022/06/13 09:23:43;;;;;;;5.72;1.85;;;;;;;17.83;51.31;102132.34;5281240;28;20357;-74
2022/06/13 09:26:17;;;;;;;5.00;1.67;;;;;;;18.20;50.40;102139.78;5267662;28;20021;-74
2022/06/13 09:28:54;;;;;;;7.47;2.88;;;;;;;18.19;50.36;102124.91;5272321;28;20434;-74
2022/06/13 09:31:41;;;;;;;6.65;2.42;;;;;;;18.10;50.59;102137.16;5273558;28;20373;-74
2022/06/13 09:34:16;;;;;;;3.60;1.95;;;;;;;18.09;50.18;102133.53;5269669;28;20125;-74
2022/06/13 09:36:57;;;;;;;;;;;;;;;18.32;50.62;102130.84;5270047;28;20021;-73
2022/06/13 09:39:28;;;;;;;4.88;1.65;;;;;;;18.01;49.42;102142.66;5267803;28;19951;-77
2022/06/13 09:42:26;;;;;;;7.63;4.10;;;;;;;17.89;52.57;102145.13;5277583;28;20447;-77
2022/06/13 09:45:07;;;;;;;5.07;4.28;;;;;;;17.80;53.29;102153.44;5268872;28;20472;-77
2022/06/13 09:47:57;;;;;;;8.18;3.03;;;;;;;17.84;54.52;102154.47;5267783;28;20040;-77
2022/06/13 09:50:54;;;;;;;9.40;2.70;;;;;;;17.87;55.32;102164.25;5261051;28;20020;-78
2022/06/13 09:53:46;;;;;;;3.90;2.20;;;;;;;17.99;54.79;102158.97;5276959;28;20024;-77
2022/06/13 09:56:57;;;;;;;6.30;2.70;;;;;;;17.93;54.26;102151.81;5269983;28;20043;-77
2022/06/13 10:00:03;;;;;;;8.18;3.63;;;;;;;18.02;54.40;102163.97;5267155;28;20079;-77
2022/06/13 10:02:41;;;;;;;3.60;2.90;;;;;;;18.11;54.53;102166.91;5268577;28;20128;-78
2022/06/13 10:05:40;;;;;;;4.45;2.70;;;;;;;18.24;54.69;102166.94;5274899;28;20488;-78
2022/06/13 10:08:43;;;;;;;6.72;2.50;;;;;;;18.15;52.47;102167.94;5250180;28;20036;-76
2022/06/13 10:11:24;;;;;;;6.72;2.13;;;;;;;18.13;51.72;102164.63;5280041;28;20036;-75
2022/06/13 10:14:28;;;;;;;4.53;1.70;;;;;;;18.14;50.50;102174.72;5268889;28;20032;-76
2022/06/13 10:17:02;;;;;;;9.38;2.63;;;;;;;18.21;50.36;102173.16;5269579;28;20382;-77
2022/06/13 10:19:57;;;;;;;4.88;1.88;;;;;;;17.99;50.08;102164.59;5279861;28;20036;-77
2022/06/13 10:22:43;;;;;;;8.37;1.80;;;;;;;18.31;50.60;102168.50;5259772;28;20206;-75
2022/06/13 10:25:36;;;;;;;6.60;2.28;;;;;;;18.34;50.53;102173.50;5264042;28;20631;-76
2022/06/13 10:28:21;;;;;;;6.03;2.10;;;;;;;18.62;50.64;102168.72;5275943;28;20025;-76
2022/06/13 10:31:16;;;;;;;5.07;4.35;;;;;;;18.42;50.18;102164.34;5276972;28;20016;-76
2022/06/13 10:34:06;;;;;;;6.45;3.28;;;;;;;18.39;50.32;102167.78;5251779;28;20036;-76
2022/06/13 10:36:54;;;;;;;4.18;2.10;;;;;;;18.37;48.44;102179.31;5271024;28;20040;-75
2022/06/13 10:39:26;;;;;;;6.20;2.35;;;;;;;18.51;48.97;102173.72;5273446;28;20091;-74
2022/06/13 10:42:05;;;;;;;4.53;2.45;;;;;;;18.78;48.54;102169.28;5273657;28;20039;-75
2022/06/13 10:44:39;;;;;;;5.60;2.60;;;;;;;18.86;48.47;102163.72;5269651;28;20033;-75
2022/06/13 10:47:24;;;;;;;4.47;2.22;;;;;;;18.68;49.45;102171.09;5274485;28;20017;-80
2022/06/13 10:50:00;;;;;;;5.32;2.17;;;;;;;18.88;49.24;102164.25;5252934;28;20085;-75
2022/06/13 10:52:37;;;;;;;5.32;2.20;;;;;;;19.01;48.27;102175.78;5272322;28;20078;-76
2022/06/13 10:55:11;;;;;;;4.72;2.00;;;;;;;18.77;48.19;102174.06;5278838;28;20066;-78
2022/06/13 10:58:18;;;;;;;6.00;2.38;;;;;;;18.94;48.91;102170.59;5253728;28;20407;-79
2022/06/13 11:01:07;;;;;;;6.47;2.90;;;;;;;19.29;48.61;102165.31;5269235;28;20479;-78
2022/06/13 11:04:05;;;;;;;4.35;3.30;;;;;;;19.25;48.05;102181.16;5266043;28;20078;-78
2022/06/13 11:06:50;;;;;;;80.93;72.75;;;;;;;18.99;48.33;102170.47;5275825;28;20029;-77
2022/06/13 11:09:27;;;;;;;12.30;10.10;;;;;;;18.94;46.52;102173.41;5266239;28;20117;-77
2022/06/13 11:12:03;;;;;;;4.10;1.88;;;;;;;18.78;46.51;102177.69;5276063;28;20033;-76
2022/06/13 11:22:37;;;;;;;4.57;1.90;;;;;;;18.86;47.06;102180.59;5269334;28;20089;-77
2022/06/13 11:24:03;;;;;;;3.17;1.60;;;;;;;19.07;45.46;102189.44;5278901;28;20025;-80
2022/06/13 11:29:30;;;;;;;6.05;1.50;;;;;;;18.81;47.15;102182.69;5276393;28;20040;-72
2022/06/13 11:32:05;;;;;;;3.40;1.42;;;;;;;19.19;47.27;102182.44;5267843;28;20020;-71
2022/06/13 11:34:39;;;;;;;3.63;1.60;;;;;;;19.24;46.68;102179.50;5254801;28;20028;-72
2022/06/13 11:37:13;;;;;;;5.70;1.60;;;;;;;19.28;45.39;102175.75;5277803;28;20029;-71
2022/06/13 11:39:47;;;;;;;2.20;1.50;;;;;;;19.53;43.08;102185.56;5264878;28;20162;-70
2022/06/13 11:42:26;;;;;;;2.08;1.30;;;;;;;19.73;43.51;102180.59;5268445;28;20476;-72
2022/06/13 11:45:03;;;;;;;4.85;2.00;;;;;;;19.43;44.03;102171.75;5278712;28;20033;-72
2022/06/13 11:47:44;;;;;;;5.05;1.67;;;;;;;19.18;45.11;102183.59;5262299;28;20028;-71
2022/06/13 11:50:24;;;;;;;6.43;1.83;;;;;;;18.95;46.09;102179.88;5268854;28;20030;-72
2022/06/13 11:55:59;;;;;;;3.40;1.55;;;;;;;18.99;45.94;102181.72;5253921;28;20036;-71
2022/06/13 11:58:33;;;;;;;10.35;2.95;;;;;;;19.11;46.64;102179.22;5271510;28;20407;-72
2022/06/13 12:01:38;;;;;;;4.68;1.60;;;;;;;19.31;45.53;102177.09;5275139;28;20020;-72
2022/06/13 12:04:19;;;;;;;4.28;1.60;;;;;;;19.18;45.81;102180.78;5258939;28;20037;-72
2022/06/13 12:06:59;;;;;;;4.28;1.50;;;;;;;19.43;44.25;102177.38;5264648;28;20388;-71
2022/06/13 12:09:33;;;;;;;4.55;1.77;;;;;;;19.59;44.23;102177.00;5278287;28;20420;-70
2022/06/13 12:12:07;;;;;;;6.47;1.70;;;;;;;19.82;43.00;102183.50;5282000;28;20107;-71
2022/06/13 12:14:41;;;;;;;3.53;1.40;;;;;;;19.99;42.13;102177.94;5269607;28;20065;-71
2022/06/13 12:17:19;;;;;;;3.70;1.90;;;;;;;19.80;44.37;102183.81;5278022;28;20376;-71
2022/06/13 12:20:32;;;;;;;4.50;1.40;;;;;;;19.46;45.61;102190.78;5261546;28;20025;-70
2022/06/13 12:23:13;;;;;;;8.05;2.05;;;;;;;19.14;44.89;102197.44;5271608;28;20045;-70
2022/06/13 12:25:56;;;;;;;4.97;1.88;;;;;;;19.27;43.48;102202.19;5249659;28;20027;-70
2022/06/13 12:28:40;;;;;;;4.97;1.63;;;;;;;19.23;42.14;102211.59;5260855;28;20033;-69
2022/06/13 12:31:22;;;;;;;4.18;1.42;;;;;;;19.35;42.63;102203.41;5275731;28;20476;-70
2022/06/13 12:34:20;;;;;;;5.70;1.50;;;;;;;19.55;42.60;102190.84;5273330;28;20105;-71
2022/06/13 12:37:09;;;;;;;5.20;1.60;;;;;;;19.82;42.79;102198.38;5267964;28;20466;-70
2022/06/13 12:39:54;;;;;;;2.95;1.60;;;;;;;20.01;43.90;102191.72;5274386;28;20059;-70
2022/06/13 12:42:39;;;;;;;3.50;1.45;;;;;;;20.01;43.23;102191.72;5261172;28;20048;-70
2022/06/13 12:45:47;;;;;;;4.75;1.73;;;;;;;19.70;43.66;102198.13;5284716;28;20036;-68
2022/06/13 12:48:51;;;;;;;6.15;1.90;;;;;;;20.03;42.17;102195.06;5260820;28;20121;-71
2022/06/13 12:51:35;;;;;;;9.90;7.60;;;;;;;19.96;42.28;102201.94;5276305;28;20025;-71
2022/06/13 12:54:31;;;;;;;6.78;2.25;;;;;;;19.46;42.51;102207.66;5275952;28;20028;-71
2022/06/13 12:57:18;;;;;;;6.00;1.70;;;;;;;19.76;43.06;102210.91;5275509;28;20076;-69
2022/06/13 13:00:02;;;;;;;5.60;2.13;;;;;;;20.09;42.38;102207.84;5269512;28;20032;-68
2022/06/13 13:02:39;;;;;;;4.03;2.35;;;;;;;19.91;41.61;102202.09;5279764;28;20048;-70
2022/06/13 13:05:33;;;;;;;3.00;1.70;;;;;;;20.16;41.07;102211.03;5258080;28;20032;-68
2022/06/13 13:08:25;;;;;;;6.38;2.08;;;;;;;20.39;40.24;102206.19;5258557;28;20032;-69
2022/06/13 13:11:12;;;;;;;4.97;1.80;;;;;;;20.45;40.60;102201.25;5267405;28;20113;-70
2022/06/13 13:13:54;;;;;;;3.50;1.60;;;;;;;20.05;39.87;102216.09;5253067;28;20059;-71
2022/06/13 13:16:43;;;;;;;9.55;2.92;;;;;;;20.21;39.26;102208.06;5269249;28;20112;-70
2022/06/13 13:19:47;;;;;;;4.53;1.70;;;;;;;20.46;39.93;102208.56;5268471;28;20037;-70
2022/06/13 13:22:26;;;;;;;5.82;2.30;;;;;;;20.41;39.23;102224.44;5274510;28;20479;-70
2022/06/13 13:25:18;;;;;;;3.53;1.65;;;;;;;20.59;38.85;102216.09;5277380;28;20060;-70
2022/06/13 13:28:07;;;;;;;7.75;2.58;;;;;;;20.66;38.12;102218.44;5252529;28;20534;-70
2022/06/13 13:30:44;;;;;;;6.30;2.28;;;;;;;20.61;37.81;102217.44;5256261;28;20032;-71
2022/06/13 13:33:41;;;;;;;4.82;2.00;;;;;;;20.73;36.54;102219.63;5253385;28;20065;-71
2022/06/13 13:36:27;;;;;;;8.48;3.35;;;;;;;20.84;36.54;102215.38;5259976;28;20367;-72
2022/06/13 13:39:07;;;;;;;4.68;1.60;;;;;;;20.52;36.56;102224.97;5269835;28;20388;-71
2022/06/13 13:41:53;;;;;;;8.25;3.55;;;;;;;19.96;38.48;102221.66;5281978;28;20043;-71
2022/06/13 13:44:47;;;;;;;7.80;2.90;;;;;;;20.20;38.83;102228.97;5274555;28;20475;-73
2022/06/13 13:47:20;;;;;;;5.05;1.83;;;;;;;20.11;38.69;102220.44;5257001;28;20034;-72
2022/06/13 13:49:57;;;;;;;3.58;1.58;;;;;;;20.12;38.28;102232.53;5269455;28;20035;-71
2022/06/13 13:52:37;;;;;;;5.30;1.90;;;;;;;20.11;37.83;102219.63;5272735;28;20112;-71
2022/06/13 13:55:23;;;;;;;5.03;1.88;;;;;;;20.20;37.12;102237.41;5279963;28;20025;-73
2022/06/13 13:58:21;;;;;;;6.43;2.35;;;;;;;20.33;36.53;102227.22;5254281;28;20051;-74
2022/06/13 14:01:22;;;;;;;3.83;1.83;;;;;;;20.73;36.50;102225.25;5280179;28;20031;-74
2022/06/13 14:04:10;;;;;;;3.67;1.42;;;;;;;20.69;35.50;102227.09;5261227;28;20033;-70
2022/06/13 14:06:51;;;;;;;6.28;1.65;;;;;;;20.92;36.24;102230.66;5243371;28;20028;-71
2022/06/13 14:09:23;;;;;;;5.72;1.67;;;;;;;20.42;35.19;102225.25;5277264;28;20425;-73
2022/06/13 14:12:10;;;;;;;6.78;2.20;;;;;;;20.74;35.86;102229.75;5267246;28;20108;-71
2022/06/13 14:14:47;;;;;;;9.70;2.03;;;;;;;20.91;35.42;102226.16;5275924;28;20033;-72
2022/06/13 14:17:31;;;;;;;3.45;1.50;;;;;;;21.00;35.49;102226.19;5276550;28;20033;-73
2022/06/13 14:20:17;;;;;;;4.15;1.60;;;;;;;20.34;35.69;102223.22;5264216;28;20488;-75
2022/06/13 14:22:52;;;;;;;3.85;1.70;;;;;;;20.51;35.19;102223.31;5260104;28;20032;-71
2022/06/13 14:25:33;;;;;;;4.80;1.35;;;;;;;20.78;34.76;102211.00;5265325;28;20021;-71
2022/06/13 14:28:09;;;;;;;5.43;1.70;;;;;;;21.25;34.71;102213.31;5276012;28;20049;-72
2022/06/13 14:31:09;;;;;;;3.97;1.50;;;;;;;21.18;34.33;102213.78;5275086;28;20035;-73
2022/06/13 14:36:51;;;;;;;4.10;1.73;;;;;;;21.16;33.71;102218.09;5283606;28;20080;-73
2022/06/13 14:39:32;;;;;;;4.40;1.42;;;;;;;21.13;34.78;102222.41;5275981;28;20024;-75
2022/06/13 14:42:22;;;;;;;7.43;2.80;;;;;;;20.63;35.89;102219.91;5255396;28;20024;-75
2022/06/13 14:45:12;;;;;;;6.30;2.50;;;;;;;20.93;36.65;102223.00;5282576;28;20032;-74
2022/06/13 14:48:09;;;;;;;4.93;2.10;;;;;;;20.66;36.75;102221.25;5253498;28;20035;-74
2022/06/13 14:50:54;;;;;;;6.05;2.50;;;;;;;20.01;37.39;102219.88;5282679;28;20387;-74
2022/06/13 14:53:40;;;;;;;3.97;1.92;;;;;;;20.45;37.43;102216.16;5254821;28;20044;-74
2022/06/13 14:56:14;;;;;;;;;;;;;;;20.78;37.03;102216.66;5255907;28;20380;-75
2022/06/13 14:58:45;;;;;;;7.63;3.13;;;;;;;20.21;36.80;102224.97;5270589;28;19962;-74
2022/06/13 15:01:37;;;;;;;41.47;36.17;;;;;;;20.12;37.60;102226.91;5267893;28;20040;-75
2022/06/13 15:04:08;;;;;;;8.65;2.58;;;;;;;19.91;37.32;102218.16;5274619;28;20026;-75
2022/06/13 15:06:50;;;;;;;4.93;2.17;;;;;;;19.94;38.34;102218.34;5265273;28;20031;-74
2022/06/13 15:09:36;;;;;;;6.32;2.75;;;;;;;20.26;37.83;102215.56;5265851;28;20386;-73
2022/06/13 15:12:11;;;;;;;4.47;1.90;;;;;;;20.19;37.38;102214.03;5272842;28;20048;-73
2022/06/13 15:14:47;;;;;;;6.65;2.72;;;;;;;20.43;38.05;102218.47;5258565;28;20029;-74
2022/06/13 15:17:20;;;;;;;6.88;2.88;;;;;;;20.56;38.12;102214.75;5260915;28;20033;-74
2022/06/13 15:19:56;;;;;;;5.00;1.85;;;;;;;20.37;37.56;102223.41;5280094;28;20068;-75
2022/06/13 15:22:34;;;;;;;4.97;1.50;;;;;;;20.53;36.84;102214.53;5278647;28;20433;-72
2022/06/13 15:25:06;;;;;;;4.28;1.75;;;;;;;20.58;35.63;102218.09;5281680;28;20460;-73
2022/06/13 15:27:57;;;;;;;4.50;1.70;;;;;;;20.70;36.21;102214.63;5275413;28;20035;-73
2022/06/13 15:30:36;;;;;;;7.20;2.00;;;;;;;20.49;37.00;102205.06;5251575;28;20658;-75
2022/06/13 15:33:22;;;;;;;5.13;2.22;;;;;;;20.67;37.87;102204.03;5260127;28;20121;-75
2022/06/13 15:36:00;;;;;;;5.30;2.15;;;;;;;20.55;37.82;102206.63;5264230;28;20036;-75
2022/06/13 15:38:40;;;;;;;6.07;1.95;;;;;;;20.63;38.36;102205.81;5274115;28;20100;-75
2022/06/13 15:41:27;;;;;;;4.60;1.67;;;;;;;20.77;38.34;102209.38;5262237;28;20022;-75
2022/06/13 15:43:59;;;;;;;5.78;2.10;;;;;;;20.76;36.71;102209.69;5268362;28;20095;-75
2022/06/13 15:46:40;;;;;;;7.38;2.53;;;;;;;20.87;37.04;102213.88;5253933;28;20120;-76
2022/06/13 15:49:15;;;;;;;6.32;2.25;;;;;;;20.96;37.13;102216.72;5249820;28;20022;-76
2022/06/13 15:52:07;;;;;;;7.65;2.47;;;;;;;20.76;37.00;102218.13;5276789;28;20495;-75
2022/06/13 15:54:42;;;;;;;3.47;1.73;;;;;;;20.51;37.16;102209.22;5272824;28;20162;-75
2022/06/13 15:57:19;;;;;;;2.65;1.83;;;;;;;20.70;37.78;102214.63;5277081;28;20059;-74
2022/06/13 16:00:11;;;;;;;5.45;1.90;;;;;;;20.90;38.58;102209.56;5280507;28;20123;-76
2022/06/13 16:02:46;;;;;;;5.13;2.35;;;;;;;20.96;38.97;102208.25;5263969;28;20030;-76
2022/06/13 16:05:20;;;;;;;12.25;1.90;;;;;;;21.15;37.33;102208.81;5264537;28;20029;-76
2022/06/13 16:07:55;;;;;;;7.65;1.80;;;;;;;20.92;37.62;102210.91;5281142;28;20029;-76
2022/06/13 16:10:36;;;;;;;6.70;3.08;;;;;;;21.14;37.67;102212.78;5271908;28;20021;-76
2022/06/13 16:13:12;;;;;;;9.25;5.20;;;;;;;20.75;37.77;102220.13;5271100;28;20021;-75
2022/06/13 16:15:44;;;;;;;5.85;2.55;;;;;;;20.47;38.11;102215.84;5274212;28;20028;-75
2022/06/13 16:18:42;;;;;;;4.68;2.15;;;;;;;20.70;38.15;102211.00;5272378;28;20355;-76
2022/06/13 16:21:17;;;;;;;6.00;3.08;;;;;;;20.08;38.81;102209.81;5262911;28;20028;-74
2022/06/13 16:24:02;;;;;;;5.10;2.22;;;;;;;20.39;38.73;102211.81;5269040;28;20020;-69
2022/06/13 16:26:38;;;;;;;8.50;1.90;;;;;;;20.46;38.50;102214.19;5258547;28;20044;-69
2022/06/13 16:29:15;;;;;;;5.25;1.83;;;;;;;20.64;38.09;102215.94;5281825;28;20093;-67
2022/06/13 16:31:49;;;;;;;5.70;1.75;;;;;;;20.63;38.23;102211.44;5262258;28;20097;-69
2022/06/13 16:34:23;;;;;;;4.35;2.13;;;;;;;20.26;38.64;102213.56;5275821;28;20025;-68
2022/06/13 16:37:04;;;;;;;5.03;1.83;;;;;;;20.52;39.17;102207.25;5258912;28;20030;-68
2022/06/13 16:39:40;;;;;;;7.47;4.10;;;;;;;20.64;38.00;102213.13;5266441;28;20028;-68
2022/06/13 16:42:16;;;;;;;6.63;2.28;;;;;;;21.03;37.60;102222.72;5277326;28;20029;-67
2022/06/13 16:44:50;;;;;;;6.65;2.42;;;;;;;20.88;37.86;102221.16;5274205;28;20029;-67
2022/06/13 16:47:29;;;;;;;4.82;2.30;;;;;;;20.87;37.68;102224.34;5264562;28;20507;-68
2022/06/13 16:50:07;;;;;;;5.32;2.40;;;;;;;21.26;37.71;102221.44;5271630;28;20028;-67
2022/06/13 16:52:51;;;;;;;5.93;1.80;;;;;;;21.20;37.45;102219.94;5275443;28;20373;-67
2022/06/13 16:55:33;;;;;;;2.83;1.30;;;;;;;20.69;37.48;102220.63;5277289;28;20024;-68
2022/06/13 16:58:23;;;;;;;4.57;2.03;;;;;;;20.91;37.39;102220.50;5252603;28;20037;-68
2022/06/13 17:01:04;;;;;;;8.48;3.38;;;;;;;20.88;36.86;102218.34;5266121;28;20472;-68
2022/06/13 17:04:02;;;;;;;30.35;26.35;;;;;;;20.86;37.21;102212.19;5280595;28;20365;-67
2022/06/13 17:06:43;;;;;;;5.65;2.30;;;;;;;20.70;37.25;102214.63;5257949;28;20144;-68
2022/06/13 17:09:22;;;;;;;3.50;1.48;;;;;;;20.78;37.67;102216.66;5258883;28;20079;-68
2022/06/13 17:11:55;;;;;;;5.88;1.90;;;;;;;20.50;38.20;102220.81;5272551;28;20021;-68
2022/06/13 17:14:35;;;;;;;3.95;1.60;;;;;;;20.81;37.95;102218.84;5264341;28;20387;-67
2022/06/13 17:17:11;;;;;;;12.85;4.30;;;;;;;20.77;37.89;102209.38;5263662;28;20076;-67
2022/06/13 17:19:49;;;;;;;6.10;2.45;;;;;;;20.90;37.63;102212.41;5256522;28;20032;-68
2022/06/13 17:22:22;;;;;;;4.93;1.85;;;;;;;20.89;37.47;102222.00;5275595;28;20432;-68
2022/06/13 17:24:55;;;;;;;5.28;2.10;;;;;;;20.99;37.54;102216.09;5262817;28;20360;-68
2022/06/13 17:32:06;;;;;;;6.82;1.60;;;;;;;21.22;37.20;102206.34;5259448;28;20056;-68
